Time;durP1;ratioP1;P1;durP2;ratioP2;P2;SDS_P1;SDS_P2;PMS_P1;PMS_P2;Temp;Humidity;BMP_temperature;BMP_pressure;BME280_temperature;BME280_humidity;BME280_pressure;Samples;Min_cycle;Max_cycle;Signal;HPM_P1;HPM_P2
2022/07/13 00:00:28;;;;;;;2.60;0.93;;;;;;;-148.22;100.00;64452.44;5019143;28;20057;-63
2022/07/13 00:02:55;;;;;;;3.50;1.00;;;;;;;-148.22;100.00;64452.44;5022411;28;20042;-63
2022/07/13 00:05:22;;;;;;;2.33;0.93;;;;;;;-148.22;100.00;64452.44;5020108;28;20519;-63
2022/07/13 00:07:49;;;;;;;1.90;1.15;;;;;;;-148.22;100.00;64452.44;5005415;28;20501;-63
2022/07/13 00:10:15;;;;;;;2.25;1.00;;;;;;;-148.22;100.00;64452.44;5019969;28;20057;-64
2022/07/13 00:12:42;;;;;;;2.03;0.85;;;;;;;-148.22;100.00;64452.44;5006139;28;20053;-64
2022/07/13 00:15:09;;;;;;;1.63;0.80;;;;;;;-148.22;100.00;64452.44;5022658;28;20049;-64
2022/07/13 00:17:36;;;;;;;3.60;1.00;;;;;;;-148.22;100.00;64452.44;5015910;28;20049;-64
2022/07/13 00:20:03;;;;;;;1.52;1.10;;;;;;;-148.22;100.00;64452.44;5041102;28;20044;-63
2022/07/13 00:22:29;;;;;;;2.40;0.88;;;;;;;-148.22;100.00;64452.44;5017746;28;20543;-65
2022/07/13 00:24:56;;;;;;;1.73;1.00;;;;;;;-148.22;100.00;64452.44;5006748;28;20042;-63
2022/07/13 00:27:23;;;;;;;1.98;0.90;;;;;;;-148.22;100.00;64452.44;5025919;28;20045;-63
2022/07/13 00:29:49;;;;;;;2.25;1.25;;;;;;;-148.22;100.00;64452.44;5023019;28;20475;-62
2022/07/13 00:32:16;;;;;;;1.98;1.00;;;;;;;-148.22;100.00;64452.44;5033959;28;20041;-64
2022/07/13 00:34:42;;;;;;;1.55;0.90;;;;;;;-148.22;100.00;64452.44;5023954;28;20103;-63
2022/07/13 00:37:09;;;;;;;1.63;0.93;;;;;;;-148.22;100.00;64452.44;5006882;28;20060;-62
2022/07/13 00:39:36;;;;;;;2.40;1.10;;;;;;;-148.22;100.00;64452.44;5026405;28;20052;-64
2022/07/13 00:42:02;;;;;;;1.27;0.65;;;;;;;-148.22;100.00;64452.44;5009438;28;20041;-64
2022/07/13 00:44:29;;;;;;;3.45;1.00;;;;;;;-148.22;100.00;64452.44;5006450;28;20037;-64
2022/07/13 00:46:56;;;;;;;1.65;0.90;;;;;;;-148.22;100.00;64452.44;5017882;28;20045;-63
2022/07/13 00:49:23;;;;;;;1.70;0.90;;;;;;;-148.22;100.00;64452.44;5027402;28;20042;-63
2022/07/13 00:51:50;;;;;;;4.07;1.00;;;;;;;-148.22;100.00;64452.44;5024199;28;20041;-63
2022/07/13 00:54:19;;;;;;;2.05;0.82;;;;;;;-148.22;100.00;64452.44;5027627;28;20050;-66
2022/07/13 00:56:47;;;;;;;1.30;0.85;;;;;;;-148.22;100.00;64452.44;5030814;28;20037;-65
2022/07/13 00:59:14;;;;;;;2.40;1.08;;;;;;;-148.22;100.00;64452.44;5024680;28;20041;-65
2022/07/13 01:01:41;;;;;;;4.05;1.05;;;;;;;-148.22;100.00;64452.44;5025463;28;20219;-64
2022/07/13 01:04:08;;;;;;;1.65;0.80;;;;;;;-148.22;100.00;64452.44;5012444;28;20041;-65
2022/07/13 01:06:35;;;;;;;1.40;0.90;;;;;;;-148.22;100.00;64452.44;5020643;28;20083;-65
2022/07/13 01:09:02;;;;;;;3.10;1.10;;;;;;;-148.22;100.00;64452.44;5025378;28;20080;-65
2022/07/13 01:11:29;;;;;;;1.98;1.00;;;;;;;-148.22;100.00;64452.44;5025394;28;20160;-65
2022/07/13 01:13:57;;;;;;;1.98;0.88;;;;;;;-148.22;100.00;64452.44;5017200;28;20050;-65
2022/07/13 01:16:24;;;;;;;1.85;1.00;;;;;;;-148.22;100.00;64452.44;5025598;28;20045;-66
2022/07/13 01:18:51;;;;;;;2.47;1.08;;;;;;;-148.22;100.00;64452.44;5024799;28;20041;-65
2022/07/13 01:21:18;;;;;;;2.08;0.95;;;;;;;-148.22;100.00;64452.44;5025287;28;20532;-66
2022/07/13 01:23:46;;;;;;;2.25;1.15;;;;;;;-148.22;100.00;64452.44;5024608;28;20046;-65
2022/07/13 01:26:13;;;;;;;4.40;2.03;;;;;;;-148.22;100.00;64452.44;5022978;28;20037;-66
2022/07/13 01:28:39;;;;;;;1.33;0.80;;;;;;;-148.22;100.00;64452.44;5024460;28;20046;-65
2022/07/13 01:31:06;;;;;;;2.65;1.10;;;;;;;-148.22;100.00;64452.44;5023268;28;20045;-65
2022/07/13 01:33:33;;;;;;;2.13;1.10;;;;;;;-148.22;100.00;64452.44;5009465;28;20131;-66
2022/07/13 01:36:00;;;;;;;1.73;0.90;;;;;;;-148.22;100.00;64452.44;5020402;28;20412;-65
2022/07/13 01:38:27;;;;;;;2.38;1.00;;;;;;;-148.22;100.00;64452.44;5025780;28;20116;-65
2022/07/13 01:40:53;;;;;;;2.08;1.02;;;;;;;-148.22;100.00;64452.44;5019290;28;20046;-64
2022/07/13 01:43:27;;;;;;;1.75;1.00;;;;;;;-148.22;100.00;64452.44;5007471;28;20060;-65
2022/07/13 01:45:53;;;;;;;4.22;1.10;;;;;;;-148.22;100.00;64452.44;5027132;28;20493;-64
2022/07/13 01:48:20;;;;;;;3.50;0.93;;;;;;;-148.22;100.00;64452.44;5023171;28;20048;-64
2022/07/13 01:50:46;;;;;;;3.70;1.10;;;;;;;-148.22;100.00;64452.44;5026228;28;20059;-64
2022/07/13 01:53:13;;;;;;;1.92;1.05;;;;;;;-148.22;100.00;64452.44;5023737;28;20053;-65
2022/07/13 01:55:40;;;;;;;1.70;0.93;;;;;;;-148.22;100.00;64452.44;5006608;28;20038;-64
2022/07/13 01:58:06;;;;;;;1.80;0.93;;;;;;;-148.22;100.00;64452.44;5016468;28;20509;-64
2022/07/13 02:00:33;;;;;;;2.00;1.02;;;;;;;-148.22;100.00;64452.44;5026948;28;20044;-64
2022/07/13 02:03:01;;;;;;;2.65;1.10;;;;;;;-148.22;100.00;64452.44;5026247;28;20067;-64
2022/07/13 02:05:28;;;;;;;1.65;0.90;;;;;;;-148.22;100.00;64452.44;5010484;28;20228;-64
2022/07/13 02:07:55;;;;;;;3.55;1.45;;;;;;;-148.22;100.00;64452.44;5022421;28;20406;-65
2022/07/13 02:10:34;;;;;;;2.50;1.15;;;;;;;-148.22;100.00;64452.44;5013777;28;20509;-65
2022/07/13 02:13:08;;;;;;;1.85;0.90;;;;;;;-148.22;100.00;64452.44;5007215;28;20153;-65
2022/07/13 02:15:35;;;;;;;2.00;0.70;;;;;;;-148.22;100.00;64452.44;5008668;28;20042;-64
2022/07/13 02:18:03;;;;;;;2.58;1.20;;;;;;;-148.22;100.00;64452.44;5014597;28;20041;-66
2022/07/13 02:20:32;;;;;;;1.98;0.90;;;;;;;-148.22;100.00;64452.44;5026565;28;20077;-65
2022/07/13 02:22:58;;;;;;;2.78;1.02;;;;;;;-148.22;100.00;64452.44;5020390;28;20048;-65
2022/07/13 02:25:26;;;;;;;2.13;1.30;;;;;;;-148.22;100.00;64452.44;5017930;28;20038;-66
2022/07/13 02:27:53;;;;;;;2.13;1.10;;;;;;;-148.22;100.00;64452.44;5027881;28;20488;-65
2022/07/13 02:30:19;;;;;;;1.95;1.13;;;;;;;-148.22;100.00;64452.44;5028429;28;20053;-65
2022/07/13 02:32:51;;;;;;;1.60;0.90;;;;;;;-148.22;100.00;64452.44;5020917;28;20510;-66
2022/07/13 02:35:18;;;;;;;2.22;1.50;;;;;;;-148.22;100.00;64452.44;5025673;28;20076;-64
2022/07/13 02:37:45;;;;;;;1.98;1.15;;;;;;;-148.22;100.00;64452.44;5026400;28;20049;-64
2022/07/13 02:40:12;;;;;;;1.60;0.98;;;;;;;-148.22;100.00;64452.44;5026011;28;20081;-65
2022/07/13 02:42:45;;;;;;;2.50;1.10;;;;;;;-148.22;100.00;64452.44;5022572;28;20046;-64
2022/07/13 02:45:13;;;;;;;1.58;0.90;;;;;;;-148.22;100.00;64452.44;5006775;28;20100;-64
2022/07/13 02:47:39;;;;;;;1.25;0.80;;;;;;;-148.22;100.00;64452.44;5015145;28;20049;-65
2022/07/13 02:50:06;;;;;;;2.20;0.90;;;;;;;-148.22;100.00;64452.44;5033315;28;20572;-65
2022/07/13 02:52:33;;;;;;;1.77;1.00;;;;;;;-148.22;100.00;64452.44;5025804;28;20235;-65
2022/07/13 02:54:59;;;;;;;2.80;1.10;;;;;;;-148.22;100.00;64452.44;5027703;28;20049;-65
2022/07/13 02:57:26;;;;;;;1.63;0.98;;;;;;;-148.22;100.00;64452.44;5023675;28;20040;-63
2022/07/13 02:59:56;;;;;;;2.08;1.02;;;;;;;-148.22;100.00;64452.44;5011450;28;20053;-62
2022/07/13 03:02:23;;;;;;;2.60;1.02;;;;;;;-148.22;100.00;64452.44;5024756;28;20448;-62
2022/07/13 03:04:49;;;;;;;4.03;1.48;;;;;;;-148.22;100.00;64452.44;5027576;28;20063;-62
2022/07/13 03:07:17;;;;;;;1.73;1.10;;;;;;;-148.22;100.00;64452.44;5025223;28;20045;-62
2022/07/13 03:09:43;;;;;;;2.95;1.05;;;;;;;-148.22;100.00;64452.44;5014197;28;20524;-62
2022/07/13 03:12:11;;;;;;;1.65;1.00;;;;;;;-148.22;100.00;64452.44;5013671;28;20092;-62
2022/07/13 03:14:38;;;;;;;2.30;0.93;;;;;;;-148.22;100.00;64452.44;5006468;28;20488;-62
2022/07/13 03:17:05;;;;;;;5.45;1.00;;;;;;;-148.22;100.00;64452.44;5024852;28;20045;-62
2022/07/13 03:19:33;;;;;;;3.90;1.05;;;;;;;-148.22;100.00;64452.44;5026007;28;20055;-62
2022/07/13 03:22:03;;;;;;;2.10;1.10;;;;;;;-148.22;100.00;64452.44;5009406;28;20049;-63
2022/07/13 03:24:31;;;;;;;2.38;1.20;;;;;;;-148.22;100.00;64452.44;5024752;28;20117;-63
2022/07/13 03:26:58;;;;;;;4.60;1.08;;;;;;;-148.22;100.00;64452.44;5017325;28;20053;-62
2022/07/13 03:29:26;;;;;;;2.70;1.10;;;;;;;-148.22;100.00;64452.44;5013734;28;20072;-64
2022/07/13 03:31:52;;;;;;;3.40;1.10;;;;;;;-148.22;100.00;64452.44;5024294;28;20099;-65
2022/07/13 03:34:20;;;;;;;3.25;1.35;;;;;;;-148.22;100.00;64452.44;5014987;28;20694;-64
2022/07/13 03:36:48;;;;;;;3.85;1.35;;;;;;;-148.22;100.00;64452.44;5031827;28;20086;-65
2022/07/13 03:39:15;;;;;;;2.80;1.20;;;;;;;-148.22;100.00;64452.44;5023451;28;20054;-64
2022/07/13 03:41:42;;;;;;;2.65;1.10;;;;;;;-148.22;100.00;64452.44;5003855;28;20564;-64
2022/07/13 03:44:09;;;;;;;1.30;0.90;;;;;;;-148.22;100.00;64452.44;5021821;28;20048;-65
2022/07/13 03:46:36;;;;;;;3.83;1.30;;;;;;;-148.22;100.00;64452.44;5009342;28;20041;-64
2022/07/13 03:49:02;;;;;;;2.58;0.93;;;;;;;-148.22;100.00;64452.44;5007738;28;20590;-65
2022/07/13 03:51:29;;;;;;;2.00;1.05;;;;;;;-148.22;100.00;64452.44;5023473;28;20045;-64
2022/07/13 03:53:55;;;;;;;4.35;1.25;;;;;;;-148.22;100.00;64452.44;5037409;28;20033;-65
2022/07/13 03:56:22;;;;;;;5.32;1.48;;;;;;;-148.22;100.00;64452.44;5026387;28;20403;-65
2022/07/13 03:58:49;;;;;;;4.72;1.38;;;;;;;-148.22;100.00;64452.44;5022507;28;20461;-65
2022/07/13 04:01:18;;;;;;;3.67;1.40;;;;;;;-148.22;100.00;64452.44;5008278;28;20527;-65
2022/07/13 04:03:46;;;;;;;1.83;1.10;;;;;;;-148.22;100.00;64452.44;5022107;28;20056;-64
2022/07/13 04:06:13;;;;;;;3.20;1.08;;;;;;;-148.22;100.00;64452.44;5004931;28;20042;-65
2022/07/13 04:08:40;;;;;;;2.10;1.10;;;;;;;-148.22;100.00;64452.44;5013787;28;20045;-64
2022/07/13 04:11:07;;;;;;;5.50;1.20;;;;;;;-148.22;100.00;64452.44;5019736;28;20056;-57
2022/07/13 04:13:33;;;;;;;2.08;0.90;;;;;;;-148.22;100.00;64452.44;5013685;28;20593;-53
2022/07/13 04:16:00;;;;;;;2.65;1.10;;;;;;;-148.22;100.00;64452.44;5018223;28;20053;-54
2022/07/13 04:18:31;;;;;;;2.38;1.10;;;;;;;-148.22;100.00;64452.44;5002721;28;20074;-55
2022/07/13 04:20:58;;;;;;;2.78;1.13;;;;;;;-148.22;100.00;64452.44;5010883;28;20136;-58
2022/07/13 04:23:25;;;;;;;2.75;2.00;;;;;;;-148.22;100.00;64452.44;5020351;28;20099;-58
2022/07/13 04:25:52;;;;;;;3.67;1.17;;;;;;;-148.22;100.00;64452.44;5011527;28;20055;-55
2022/07/13 04:28:18;;;;;;;5.28;1.40;;;;;;;-148.22;100.00;64452.44;5029945;28;20149;-56
2022/07/13 04:30:45;;;;;;;8.75;1.30;;;;;;;-148.22;100.00;64452.44;5008023;28;20060;-57
2022/07/13 04:33:15;;;;;;;2.45;1.20;;;;;;;-148.22;100.00;64452.44;5009848;28;20141;-58
2022/07/13 04:35:42;;;;;;;3.40;1.17;;;;;;;-148.22;100.00;64452.44;5012037;28;20058;-56
2022/07/13 04:38:09;;;;;;;3.60;1.00;;;;;;;-148.22;100.00;64452.44;5016912;28;20311;-55
2022/07/13 04:40:35;;;;;;;2.95;1.25;;;;;;;-148.22;100.00;64452.44;5004953;28;20041;-58
2022/07/13 04:43:02;;;;;;;3.88;1.30;;;;;;;-148.22;100.00;64452.44;5014757;28;20595;-56
2022/07/13 04:45:28;;;;;;;1.67;0.90;;;;;;;-148.22;100.00;64452.44;5011352;28;20057;-55
2022/07/13 04:47:55;;;;;;;1.38;0.90;;;;;;;-148.22;100.00;64452.44;5021983;28;20108;-55
2022/07/13 04:50:24;;;;;;;1.77;0.93;;;;;;;-148.22;100.00;64452.44;5016862;28;20480;-57
2022/07/13 04:52:51;;;;;;;1.73;0.93;;;;;;;-148.22;100.00;64452.44;5025993;28;20069;-56
2022/07/13 04:55:19;;;;;;;2.70;1.20;;;;;;;-148.22;100.00;64452.44;5018376;28;20059;-56
2022/07/13 04:57:46;;;;;;;4.82;1.13;;;;;;;-148.22;100.00;64452.44;5025421;28;20033;-55
2022/07/13 05:00:13;;;;;;;1.15;0.77;;;;;;;-148.22;100.00;64452.44;5012935;28;20450;-57
2022/07/13 05:02:40;;;;;;;1.58;0.90;;;;;;;-148.22;100.00;64452.44;5022596;28;20486;-57
2022/07/13 05:05:07;;;;;;;2.42;1.00;;;;;;;-148.22;100.00;64452.44;5021392;28;20072;-54
2022/07/13 05:07:34;;;;;;;2.20;0.90;;;;;;;-148.22;100.00;64452.44;5021364;28;20049;-57
2022/07/13 05:10:07;;;;;;;1.85;0.90;;;;;;;-148.22;100.00;64452.44;5011894;28;20054;-53
2022/07/13 05:12:41;;;;;;;1.65;0.80;;;;;;;-148.22;100.00;64452.44;5003582;28;20042;-56
2022/07/13 05:15:10;;;;;;;2.13;0.93;;;;;;;-148.22;100.00;64452.44;5017605;28;20069;-55
2022/07/13 05:17:38;;;;;;;2.55;0.90;;;;;;;-148.22;100.00;64452.44;5038593;28;20652;-54
2022/07/13 05:20:07;;;;;;;1.70;1.00;;;;;;;-148.22;100.00;64452.44;5009118;28;20068;-56
2022/07/13 05:22:38;;;;;;;3.85;0.93;;;;;;;-148.22;100.00;64452.44;5008552;28;20053;-57
2022/07/13 05:25:05;;;;;;;2.03;0.75;;;;;;;-148.22;100.00;64452.44;5022955;28;20041;-56
2022/07/13 05:27:32;;;;;;;2.95;0.70;;;;;;;-148.22;100.00;64452.44;5015322;28;20313;-58
2022/07/13 05:29:59;;;;;;;2.08;0.85;;;;;;;-148.22;100.00;64452.44;5026009;28;20048;-55
2022/07/13 05:32:25;;;;;;;2.78;0.80;;;;;;;-148.22;100.00;64452.44;5012259;28;20049;-56
2022/07/13 05:34:53;;;;;;;2.25;0.85;;;;;;;-148.22;100.00;64452.44;5024956;28;20065;-53
2022/07/13 05:37:21;;;;;;;5.10;0.80;;;;;;;-148.22;100.00;64452.44;5037879;28;20053;-57
2022/07/13 05:39:48;;;;;;;2.40;0.80;;;;;;;-148.22;100.00;64452.44;5017911;28;20042;-58
2022/07/13 05:42:16;;;;;;;2.15;0.70;;;;;;;-148.22;100.00;64452.44;5006652;28;20100;-53
2022/07/13 05:44:42;;;;;;;2.00;0.80;;;;;;;-148.22;100.00;64452.44;5023310;28;20073;-54
2022/07/13 05:47:09;;;;;;;1.67;0.90;;;;;;;-148.22;100.00;64452.44;5025164;28;20063;-54
2022/07/13 05:49:36;;;;;;;2.58;0.80;;;;;;;-148.22;100.00;64452.44;5016490;28;20053;-55
2022/07/13 05:52:05;;;;;;;4.15;0.93;;;;;;;-148.22;100.00;64452.44;5035487;28;20143;-53
2022/07/13 05:54:33;;;;;;;1.67;0.95;;;;;;;-148.22;100.00;64452.44;5033425;28;20049;-54
2022/07/13 05:57:10;;;;;;;2.40;1.08;;;;;;;-148.22;100.00;64452.44;5023597;28;20480;-53
2022/07/13 05:59:36;;;;;;;3.58;0.90;;;;;;;-148.22;100.00;64452.44;5023137;28;20445;-55
2022/07/13 06:02:03;;;;;;;1.50;0.70;;;;;;;-148.22;100.00;64452.44;5016169;28;20045;-56
2022/07/13 06:04:30;;;;;;;1.08;0.70;;;;;;;-148.22;100.00;64452.44;5025904;28;20042;-54
2022/07/13 06:06:56;;;;;;;1.55;0.70;;;;;;;-148.22;100.00;64452.44;5035544;28;20038;-54
2022/07/13 06:09:23;;;;;;;1.05;0.55;;;;;;;-148.22;100.00;64452.44;5018472;28;20041;-52
2022/07/13 06:11:49;;;;;;;1.60;0.80;;;;;;;-148.22;100.00;64452.44;5010669;28;20053;-50
2022/07/13 06:14:16;;;;;;;1.95;0.80;;;;;;;-148.22;100.00;64452.44;5022965;28;20041;-53
2022/07/13 06:16:42;;;;;;;1.00;0.60;;;;;;;-148.22;100.00;64452.44;5022134;28;20568;-52
2022/07/13 06:19:09;;;;;;;5.28;0.90;;;;;;;-148.22;100.00;64452.44;5026367;28;20049;-55
2022/07/13 06:21:35;;;;;;;0.98;0.68;;;;;;;-148.22;100.00;64452.44;5019512;28;20072;-56
2022/07/13 06:24:02;;;;;;;2.17;1.00;;;;;;;-148.22;100.00;64452.44;5022593;28;20048;-55
2022/07/13 06:26:30;;;;;;;2.72;0.73;;;;;;;-148.22;100.00;64452.44;5006518;28;20048;-55
2022/07/13 06:28:56;;;;;;;2.15;0.60;;;;;;;-148.22;100.00;64452.44;5045517;28;20056;-55
2022/07/13 06:31:23;;;;;;;2.33;0.73;;;;;;;-148.22;100.00;64452.44;5045394;28;20052;-54
2022/07/13 06:33:51;;;;;;;1.60;0.63;;;;;;;-148.22;100.00;64452.44;5008678;28;20049;-62
2022/07/13 06:36:18;;;;;;;1.67;0.70;;;;;;;-148.22;100.00;64452.44;5028338;28;20044;-61
2022/07/13 06:38:45;;;;;;;1.83;1.00;;;;;;;-148.22;100.00;64452.44;5024423;28;20048;-61
2022/07/13 06:41:12;;;;;;;2.17;0.85;;;;;;;-148.22;100.00;64452.44;5013316;28;20595;-61
2022/07/13 06:43:38;;;;;;;3.17;0.77;;;;;;;-148.22;100.00;64452.44;5017336;28;20401;-60
2022/07/13 06:46:05;;;;;;;2.42;0.65;;;;;;;-148.22;100.00;64452.44;5016134;28;20505;-61
2022/07/13 06:48:32;;;;;;;1.00;0.60;;;;;;;-148.22;100.00;64452.44;5008775;28;20699;-61
2022/07/13 06:50:59;;;;;;;1.63;0.50;;;;;;;-148.22;100.00;64452.44;5005907;28;20347;-61
2022/07/13 06:53:25;;;;;;;0.82;0.60;;;;;;;-148.22;100.00;64452.44;5024597;28;20056;-61
2022/07/13 06:55:52;;;;;;;2.25;0.60;;;;;;;-148.22;100.00;64452.44;5025488;28;20061;-61
2022/07/13 06:58:19;;;;;;;0.90;0.47;;;;;;;-148.22;100.00;64452.44;5031205;28;20044;-61
2022/07/13 07:00:45;;;;;;;1.45;0.70;;;;;;;-148.22;100.00;64452.44;5023071;28;20068;-62
2022/07/13 07:03:12;;;;;;;0.80;0.50;;;;;;;-148.22;100.00;64452.44;5038277;28;20136;-61
2022/07/13 07:05:39;;;;;;;0.95;0.60;;;;;;;-148.22;100.00;64452.44;5035718;28;20136;-60
2022/07/13 07:08:06;;;;;;;1.65;0.52;;;;;;;-148.22;100.00;64452.44;5033357;28;20037;-60
2022/07/13 07:10:33;;;;;;;1.13;0.55;;;;;;;-148.22;100.00;64452.44;5033557;28;20468;-61
2022/07/13 07:13:05;;;;;;;1.25;0.52;;;;;;;-148.22;100.00;64452.44;5024689;28;20455;-60
2022/07/13 07:15:32;;;;;;;0.88;0.55;;;;;;;-148.22;100.00;64452.44;5028568;28;20049;-61
2022/07/13 07:17:59;;;;;;;1.08;0.60;;;;;;;-148.22;100.00;64452.44;5033141;28;20034;-61
2022/07/13 07:20:33;;;;;;;1.80;0.77;;;;;;;-148.22;100.00;64452.44;5005080;28;20046;-61
2022/07/13 07:23:00;;;;;;;0.63;0.52;;;;;;;-148.22;100.00;64452.44;5028916;28;20060;-61
2022/07/13 07:25:26;;;;;;;3.45;1.23;;;;;;;-148.22;100.00;64452.44;5032722;28;20037;-61
2022/07/13 07:27:53;;;;;;;1.52;0.70;;;;;;;-148.22;100.00;64452.44;5023271;28;20530;-61
2022/07/13 07:30:19;;;;;;;0.95;0.52;;;;;;;-148.22;100.00;64452.44;5034851;28;20512;-61
2022/07/13 07:32:46;;;;;;;1.67;0.60;;;;;;;-148.22;100.00;64452.44;5033509;28;20049;-61
2022/07/13 07:35:13;;;;;;;2.30;0.70;;;;;;;-148.22;100.00;64452.44;5026468;28;20045;-61
2022/07/13 07:37:39;;;;;;;1.67;0.80;;;;;;;-148.22;100.00;64452.44;5030460;28;20053;-61
2022/07/13 07:40:08;;;;;;;2.75;0.52;;;;;;;-148.22;100.00;64452.44;5025251;28;20536;-61
2022/07/13 07:42:35;;;;;;;0.75;0.60;;;;;;;-148.22;100.00;64452.44;5009155;28;20053;-61
2022/07/13 07:45:03;;;;;;;1.75;0.60;;;;;;;-148.22;100.00;64452.44;5003691;28;20056;-62
2022/07/13 07:47:30;;;;;;;0.90;0.60;;;;;;;-148.22;100.00;64452.44;5029917;28;20041;-61
2022/07/13 07:49:57;;;;;;;1.52;0.60;;;;;;;-148.22;100.00;64452.44;5044572;28;20496;-61
2022/07/13 07:52:24;;;;;;;0.68;0.40;;;;;;;-148.22;100.00;64452.44;5026964;28;20049;-61
2022/07/13 07:55:10;;;;;;;1.55;0.70;;;;;;;-148.22;100.00;64452.44;5040080;28;20053;-61
2022/07/13 07:57:47;;;;;;;2.65;0.60;;;;;;;-148.22;100.00;64452.44;5024486;28;20045;-61
2022/07/13 08:00:14;;;;;;;0.95;0.60;;;;;;;-148.22;100.00;64452.44;5035556;28;20038;-61
2022/07/13 08:02:41;;;;;;;1.50;0.60;;;;;;;-148.22;100.00;64452.44;5031826;28;20107;-60
2022/07/13 08:05:08;;;;;;;0.93;0.50;;;;;;;-148.22;100.00;64452.44;5012613;28;20053;-61
2022/07/13 08:07:39;;;;;;;1.50;0.50;;;;;;;-148.22;100.00;64452.44;5015586;28;20509;-62
2022/07/13 08:10:06;;;;;;;1.55;0.60;;;;;;;-148.22;100.00;64452.44;5012422;28;20046;-61
2022/07/13 08:12:53;;;;;;;4.63;0.68;;;;;;;-148.22;100.00;64452.44;5018845;28;20049;-62
2022/07/13 08:15:21;;;;;;;0.70;0.43;;;;;;;-148.22;100.00;64452.44;5010664;28;20046;-62
2022/07/13 08:17:47;;;;;;;2.22;0.73;;;;;;;-148.22;100.00;64452.44;5022904;28;20057;-62
2022/07/13 08:20:14;;;;;;;3.25;0.60;;;;;;;-148.22;100.00;64452.44;5007160;28;20041;-62
2022/07/13 08:22:47;;;;;;;2.53;0.50;;;;;;;-148.22;100.00;64452.44;5013718;28;20136;-62
2022/07/13 08:25:15;;;;;;;1.30;0.47;;;;;;;-148.22;100.00;64452.44;5013097;28;20048;-62
2022/07/13 08:27:42;;;;;;;0.95;0.57;;;;;;;-148.22;100.00;64452.44;5018946;28;20060;-65
2022/07/13 08:30:10;;;;;;;3.95;0.60;;;;;;;-148.22;100.00;64452.44;5019612;28;20046;-62
2022/07/13 08:32:40;;;;;;;1.52;0.60;;;;;;;-148.22;100.00;64452.44;5022779;28;20045;-62
2022/07/13 08:40:42;;;;;;;1.23;0.75;;;;;;;-148.22;100.00;64452.44;5020347;28;20042;-61
2022/07/13 08:43:09;;;;;;;1.85;0.70;;;;;;;-148.22;100.00;64452.44;5015698;28;20437;-62
2022/07/13 08:45:36;;;;;;;1.15;0.52;;;;;;;-148.22;100.00;64452.44;5016251;28;20493;-62
2022/07/13 08:48:31;;;;;;;0.82;0.40;;;;;;;-148.22;100.00;64452.44;5015737;28;20068;-62
2022/07/13 08:50:59;;;;;;;1.88;0.40;;;;;;;-148.22;100.00;64452.44;5006353;28;20541;-62
2022/07/13 08:53:26;;;;;;;0.80;0.50;;;;;;;-148.22;100.00;64452.44;5019071;28;20052;-62
2022/07/13 08:55:53;;;;;;;0.90;0.50;;;;;;;-148.22;100.00;64452.44;5021347;28;20294;-62
2022/07/13 08:58:20;;;;;;;1.70;0.57;;;;;;;-148.22;100.00;64452.44;5007801;28;20038;-62
2022/07/13 09:00:46;;;;;;;1.58;0.60;;;;;;;-148.22;100.00;64452.44;4980063;28;1137602;-62
2022/07/13 09:03:13;;;;;;;1.27;0.40;;;;;;;-148.22;100.00;64452.44;5024313;28;20057;-62
2022/07/13 09:05:40;;;;;;;0.90;0.50;;;;;;;-148.22;100.00;64452.44;5022872;28;20061;-62
2022/07/13 09:08:09;;;;;;;0.80;0.40;;;;;;;-148.22;100.00;64452.44;5016326;28;20050;-62
2022/07/13 09:10:59;;;;;;;1.52;0.70;;;;;;;-148.22;100.00;64452.44;5023768;28;20045;-62
2022/07/13 09:13:40;;;;;;;1.00;0.40;;;;;;;-148.22;100.00;64452.44;5002722;28;20053;-62
2022/07/13 09:16:23;;;;;;;0.43;0.30;;;;;;;-148.22;100.00;64452.44;5014257;28;20414;-62
2022/07/13 09:18:55;;;;;;;2.72;0.52;;;;;;;-148.22;100.00;64452.44;5018191;28;20149;-62
2022/07/13 09:21:31;;;;;;;4.75;0.50;;;;;;;-148.22;100.00;64452.44;5020454;28;20072;-62
2022/07/13 09:24:03;;;;;;;2.38;0.80;;;;;;;-148.22;100.00;64452.44;5015618;28;20037;-62
2022/07/13 09:26:59;;;;;;;1.75;0.40;;;;;;;-148.22;100.00;64452.44;5017721;28;20332;-62
2022/07/13 09:29:28;;;;;;;1.70;0.40;;;;;;;-148.22;100.00;64452.44;5015357;28;20057;-62
2022/07/13 09:31:56;;;;;;;1.65;0.40;;;;;;;-148.22;100.00;64452.44;5014342;28;20046;-62
2022/07/13 09:34:46;;;;;;;0.47;0.30;;;;;;;-148.22;100.00;64452.44;5021603;28;20067;-62
2022/07/13 09:37:15;;;;;;;0.52;0.40;;;;;;;-148.22;100.00;64452.44;5019932;28;20042;-61
2022/07/13 09:40:07;;;;;;;1.55;0.40;;;;;;;-148.22;100.00;64452.44;5022324;28;20108;-63
2022/07/13 09:42:36;;;;;;;1.05;0.70;;;;;;;-148.22;100.00;64452.44;5018950;28;20045;-62
2022/07/13 09:47:53;;;;;;;0.98;0.40;;;;;;;-148.22;100.00;64452.44;5016684;28;20417;-62
2022/07/13 09:50:36;;;;;;;2.45;0.60;;;;;;;-148.22;100.00;64452.44;5018836;28;20041;-62
2022/07/13 09:53:22;;;;;;;2.50;0.50;;;;;;;-148.22;100.00;64452.44;5019436;28;20426;-62
2022/07/13 09:55:51;;;;;;;0.85;0.43;;;;;;;-148.22;100.00;64452.44;5022468;28;20091;-62
2022/07/13 09:58:27;;;;;;;0.63;0.40;;;;;;;-148.22;100.00;64452.44;5011843;28;20049;-62
2022/07/13 10:00:56;;;;;;;2.22;0.47;;;;;;;-148.22;100.00;64452.44;5020722;28;20509;-62
2022/07/13 10:03:24;;;;;;;0.73;0.47;;;;;;;-148.22;100.00;64452.44;5024597;28;20053;-62
2022/07/13 10:05:54;;;;;;;1.58;0.60;;;;;;;-148.22;100.00;64452.44;5020612;28;20041;-61
2022/07/13 10:08:22;;;;;;;0.95;0.43;;;;;;;-148.22;100.00;64452.44;5022563;28;20204;-61
2022/07/13 10:10:49;;;;;;;1.67;0.50;;;;;;;-148.22;100.00;64452.44;5031452;28;20041;-61
2022/07/13 10:13:17;;;;;;;0.68;0.47;;;;;;;-148.22;100.00;64452.44;5022027;28;20052;-61
2022/07/13 10:15:47;;;;;;;1.15;0.50;;;;;;;-148.22;100.00;64452.44;5025917;28;20045;-61
2022/07/13 10:18:41;;;;;;;1.08;0.45;;;;;;;-148.22;100.00;64452.44;5021684;28;20055;-61
2022/07/13 10:21:31;;;;;;;1.77;0.50;;;;;;;-148.22;100.00;64452.44;5037500;28;20072;-65
2022/07/13 10:23:58;;;;;;;3.33;0.50;;;;;;;-148.22;100.00;64452.44;5015939;28;20049;-61
2022/07/13 10:26:25;;;;;;;1.55;0.30;;;;;;;-148.22;100.00;64452.44;5010412;28;20244;-61
2022/07/13 10:29:09;;;;;;;0.73;0.32;;;;;;;-148.22;100.00;64452.44;5027769;28;20046;-61
2022/07/13 10:31:40;;;;;;;0.75;0.50;;;;;;;-148.22;100.00;64452.44;5011871;28;20568;-62
2022/07/13 10:34:09;;;;;;;0.82;0.40;;;;;;;-148.22;100.00;64452.44;5014750;28;20060;-61
2022/07/13 10:37:05;;;;;;;1.85;0.40;;;;;;;-148.22;100.00;64452.44;5019883;28;20095;-60
2022/07/13 10:39:31;;;;;;;2.22;0.45;;;;;;;-148.22;100.00;64452.44;5026743;28;20065;-61
2022/07/13 10:42:00;;;;;;;2.67;0.60;;;;;;;-148.22;100.00;64452.44;5035552;28;20053;-61
2022/07/13 10:44:41;;;;;;;2.05;0.30;;;;;;;-148.22;100.00;64452.44;5023867;28;20049;-61
2022/07/13 10:47:11;;;;;;;2.45;0.57;;;;;;;-148.22;100.00;64452.44;5013778;28;20057;-61
2022/07/13 10:49:46;;;;;;;4.30;0.60;;;;;;;-148.22;100.00;64452.44;5026728;28;20723;-61
2022/07/13 10:52:19;;;;;;;1.40;0.88;;;;;;;-148.22;100.00;64452.44;5027900;28;20056;-61
2022/07/13 10:55:05;;;;;;;2.13;0.50;;;;;;;-148.22;100.00;64452.44;5046034;28;20153;-61
2022/07/13 10:57:34;;;;;;;1.23;0.25;;;;;;;-148.22;100.00;64452.44;5027302;28;20092;-61
2022/07/13 11:00:04;;;;;;;5.85;0.70;;;;;;;-148.22;100.00;64452.44;5027221;28;20045;-61
2022/07/13 11:02:48;;;;;;;2.08;0.40;;;;;;;-148.22;100.00;64452.44;5028667;28;20054;-61
2022/07/13 11:05:23;;;;;;;1.33;0.30;;;;;;;-148.22;100.00;64452.44;5030619;28;20342;-61
2022/07/13 11:07:51;;;;;;;4.35;1.10;;;;;;;-148.22;100.00;64452.44;5032049;28;20041;-61
2022/07/13 11:10:30;;;;;;;3.85;1.20;;;;;;;-148.22;100.00;64452.44;5012139;28;20528;-61
2022/07/13 11:13:05;;;;;;;1.13;0.30;;;;;;;-148.22;100.00;64452.44;5017720;28;20049;-61
2022/07/13 11:15:52;;;;;;;1.45;0.40;;;;;;;-148.22;100.00;64452.44;5011621;28;20049;-61
2022/07/13 11:18:21;;;;;;;1.13;0.50;;;;;;;-148.22;100.00;64452.44;5021751;28;20033;-62
2022/07/13 11:20:59;;;;;;;0.40;0.20;;;;;;;-148.22;100.00;64452.44;5013293;28;20136;-61
2022/07/13 11:26:48;;;;;;;1.50;0.20;;;;;;;-148.22;100.00;64452.44;5023123;28;20041;-62
2022/07/13 11:29:18;;;;;;;3.20;1.35;;;;;;;-148.22;100.00;64452.44;5015455;28;20057;-61